createdAt,value
2023-01-06T00:01:50.055Z,11.12
2023-01-06T00:04:18.135Z,11.27
2023-01-06T00:06:46.030Z,11.74
2023-01-06T00:09:14.041Z,11.74
2023-01-06T00:11:42.300Z,11.56
2023-01-06T00:14:10.202Z,11.40
2023-01-06T00:16:38.271Z,11.65
2023-01-06T00:19:06.080Z,11.69
2023-01-06T00:21:33.718Z,11.62
2023-01-06T00:24:01.589Z,11.61
2023-01-06T00:26:30.159Z,11.48
2023-01-06T00:28:58.286Z,11.46
2023-01-06T00:31:27.978Z,11.75
2023-01-06T00:33:57.367Z,11.35
2023-01-06T00:36:26.460Z,11.16
2023-01-06T00:38:54.536Z,11.32
2023-01-06T00:41:40.921Z,11.77
2023-01-06T00:44:09.966Z,11.73
2023-01-06T00:46:38.059Z,11.65
2023-01-06T00:49:07.439Z,11.97
2023-01-06T00:51:37.269Z,11.88
2023-01-06T00:54:09.395Z,11.45
2023-01-06T00:56:38.768Z,11.77
2023-01-06T00:59:08.726Z,11.76
2023-01-06T01:01:37.358Z,11.40
2023-01-06T01:04:05.155Z,11.47
2023-01-06T01:06:33.489Z,11.45
2023-01-06T01:09:01.525Z,11.38
2023-01-06T01:11:49.583Z,11.12
2023-01-06T01:14:19.809Z,11.31
2023-01-06T01:16:47.692Z,11.31
2023-01-06T01:19:16.264Z,11.53
2023-01-06T01:21:47.357Z,11.63
2023-01-06T01:24:15.350Z,11.63
2023-01-06T01:26:43.467Z,11.89
2023-01-06T01:29:16.623Z,12.00
2023-01-06T01:31:44.759Z,12.00
2023-01-06T01:34:14.976Z,12.23
2023-01-06T01:36:45.989Z,12.00
2023-01-06T01:39:16.357Z,12.08
2023-01-06T01:41:45.344Z,12.07
2023-01-06T01:44:47.318Z,11.86
2023-01-06T01:47:19.965Z,12.12
2023-01-06T01:49:54.319Z,12.21
2023-01-06T01:52:22.929Z,12.10
2023-01-06T01:54:51.655Z,12.04
2023-01-06T01:57:29.400Z,12.16
2023-01-06T01:59:58.806Z,11.93
2023-01-06T02:02:29.972Z,12.04
2023-01-06T02:04:58.025Z,12.14
2023-01-06T02:07:27.613Z,12.07
2023-01-06T02:10:03.005Z,12.10
2023-01-06T02:12:31.271Z,12.07
2023-01-06T02:14:59.789Z,11.91
2023-01-06T02:17:42.133Z,11.86
2023-01-06T02:20:19.243Z,11.77
2023-01-06T02:23:00.485Z,11.65
2023-01-06T02:26:04.145Z,11.80
2023-01-06T02:28:41.975Z,11.73
2023-01-06T02:31:29.847Z,11.96
2023-01-06T02:34:16.543Z,11.94
2023-01-06T02:37:07.346Z,11.96
2023-01-06T02:39:55.184Z,11.72
2023-01-06T02:42:40.519Z,11.72
2023-01-06T02:45:18.029Z,11.87
2023-01-06T02:48:02.445Z,11.94
2023-01-06T02:50:41.264Z,12.04
2023-01-06T02:53:21.494Z,11.93
2023-01-06T02:55:54.987Z,11.54
2023-01-06T02:58:41.813Z,11.73
2023-01-06T03:01:14.166Z,11.87
2023-01-06T03:03:45.258Z,11.17
2023-01-06T03:06:21.648Z,11.68
2023-01-06T03:08:50.793Z,11.48
2023-01-06T03:11:20.548Z,11.31
2023-01-06T03:13:57.724Z,11.70
2023-01-06T03:16:26.188Z,11.61
2023-01-06T03:18:54.175Z,11.74
2023-01-06T03:21:25.823Z,11.69
2023-01-06T03:23:55.049Z,11.79
2023-01-06T03:26:24.990Z,11.40
2023-01-06T03:28:53.825Z,11.15
2023-01-06T03:31:41.552Z,11.26
2023-01-06T03:34:26.446Z,10.99
2023-01-06T03:37:15.981Z,10.89
2023-01-06T03:39:49.691Z,11.32
2023-01-06T03:42:40.781Z,11.22
2023-01-06T03:45:22.401Z,11.46
2023-01-06T03:48:46.747Z,11.11
2023-01-06T03:51:25.617Z,11.29
2023-01-06T03:54:31.738Z,11.09
2023-01-06T03:57:13.566Z,11.20
2023-01-06T03:59:51.230Z,11.27
2023-01-06T04:02:20.631Z,11.22
2023-01-06T04:05:11.051Z,11.42
2023-01-06T04:07:40.456Z,11.37
2023-01-06T04:10:10.157Z,11.39
2023-01-06T04:12:41.860Z,11.23
2023-01-06T04:15:16.996Z,10.95
2023-01-06T04:17:46.769Z,11.47
2023-01-06T04:20:23.323Z,11.59
2023-01-06T04:22:53.717Z,11.39
2023-01-06T04:25:22.367Z,11.39
2023-01-06T04:27:50.074Z,11.38
2023-01-06T04:30:18.742Z,10.96
2023-01-06T04:32:51.196Z,11.34
2023-01-06T04:35:19.487Z,11.01
2023-01-06T04:37:47.910Z,11.03
2023-01-06T04:40:17.032Z,11.17
2023-01-06T04:43:03.470Z,11.35
2023-01-06T04:45:32.079Z,11.07
2023-01-06T04:48:10.474Z,10.93
2023-01-06T04:50:38.802Z,11.08
2023-01-06T04:53:10.137Z,11.30
2023-01-06T04:55:40.723Z,10.84
2023-01-06T04:58:09.058Z,10.90
2023-01-06T05:00:36.570Z,10.99
2023-01-06T05:03:04.557Z,11.10
2023-01-06T05:05:32.886Z,11.28
2023-01-06T05:08:01.583Z,11.38
2023-01-06T05:10:29.958Z,11.24
2023-01-06T05:12:59.198Z,11.31
2023-01-06T05:15:49.652Z,11.39
2023-01-06T05:18:17.598Z,11.49
2023-01-06T05:23:16.157Z,10.78
2023-01-06T05:25:46.495Z,10.95
2023-01-06T05:28:14.472Z,10.92
2023-01-06T05:30:46.487Z,10.70
2023-01-06T05:33:15.256Z,11.01
2023-01-06T05:35:43.043Z,10.83
2023-01-06T05:38:13.766Z,10.90
2023-01-06T05:40:47.889Z,11.25
2023-01-06T05:43:16.444Z,10.72
2023-01-06T05:45:47.033Z,11.01
2023-01-06T05:48:16.325Z,10.95
2023-01-06T05:50:43.865Z,10.81
2023-01-06T05:53:11.694Z,10.97
2023-01-06T05:55:39.548Z,10.65
2023-01-06T05:58:07.373Z,11.01
2023-01-06T06:00:35.287Z,11.11
2023-01-06T06:03:03.375Z,11.21
2023-01-06T06:05:32.253Z,10.93
2023-01-06T06:07:59.838Z,10.94
2023-01-06T06:10:27.871Z,10.99
2023-01-06T06:12:57.319Z,11.25
2023-01-06T06:15:26.552Z,11.16
2023-01-06T06:18:00.894Z,11.14
2023-01-06T06:20:32.394Z,11.20
2023-01-06T06:23:00.497Z,11.16
2023-01-06T06:25:29.488Z,11.19
2023-01-06T06:27:58.887Z,11.19
2023-01-06T06:30:27.080Z,11.23
2023-01-06T06:32:56.064Z,11.20
2023-01-06T06:35:24.232Z,11.14
2023-01-06T06:37:54.685Z,11.03
2023-01-06T06:40:24.458Z,11.22
2023-01-06T06:42:54.930Z,11.24
2023-01-06T06:45:26.869Z,11.29
2023-01-06T06:47:55.609Z,11.38
2023-01-06T06:50:23.328Z,11.30
2023-01-06T06:52:55.078Z,11.14
2023-01-06T06:55:30.996Z,10.93
2023-01-06T06:58:04.074Z,11.24
2023-01-06T07:00:33.077Z,11.04
2023-01-06T07:03:03.499Z,11.07
2023-01-06T07:05:35.764Z,10.96
2023-01-06T07:08:05.765Z,10.87
2023-01-06T07:10:36.501Z,10.56
2023-01-06T07:13:08.715Z,10.67
2023-01-06T07:15:38.382Z,10.85
2023-01-06T07:18:07.133Z,10.54
2023-01-06T07:20:39.516Z,10.71
2023-01-06T07:23:16.344Z,10.44
2023-01-06T07:25:44.466Z,10.78
2023-01-06T07:28:17.049Z,11.03
2023-01-06T07:30:46.934Z,11.06
2023-01-06T07:33:16.913Z,10.90
2023-01-06T07:35:45.184Z,10.83
2023-01-06T07:38:13.253Z,10.71
2023-01-06T07:40:47.916Z,11.05
2023-01-06T07:43:18.750Z,10.99
2023-01-06T07:45:48.607Z,11.13
2023-01-06T07:48:19.146Z,11.00
2023-01-06T07:50:50.541Z,10.98
2023-01-06T07:53:18.543Z,11.02
2023-01-06T07:55:54.293Z,11.07
2023-01-06T07:58:24.182Z,11.11
2023-01-06T08:00:53.147Z,11.38
2023-01-06T08:03:25.366Z,11.34
2023-01-06T08:06:00.404Z,11.43
2023-01-06T08:08:36.020Z,11.21
2023-01-06T08:11:06.943Z,11.37
2023-01-06T08:13:37.824Z,11.35
2023-01-06T08:16:11.744Z,11.31
2023-01-06T08:18:48.954Z,11.61
2023-01-06T08:21:17.158Z,11.47
2023-01-06T08:23:48.158Z,11.83
2023-01-06T08:26:17.972Z,11.79
2023-01-06T08:28:48.371Z,11.70
2023-01-06T08:31:19.766Z,11.46
2023-01-06T08:33:49.215Z,11.99
2023-01-06T08:36:23.224Z,11.28
2023-01-06T08:38:52.449Z,11.85
2023-01-06T08:41:25.238Z,11.68
2023-01-06T08:43:55.539Z,12.17
2023-01-06T08:46:24.267Z,11.81
2023-01-06T08:48:52.908Z,11.94
2023-01-06T08:51:27.082Z,11.82
2023-01-06T08:53:56.350Z,11.84
2023-01-06T08:56:30.919Z,11.80
2023-01-06T08:59:07.674Z,11.49
2023-01-06T09:01:38.280Z,11.77
2023-01-06T09:04:13.055Z,11.86
2023-01-06T09:06:43.905Z,11.60
2023-01-06T09:09:13.889Z,11.73
2023-01-06T09:11:44.587Z,12.05
2023-01-06T09:14:19.811Z,12.01
2023-01-06T09:16:51.352Z,11.97
2023-01-06T09:19:27.248Z,11.50
2023-01-06T09:21:55.871Z,11.71
2023-01-06T09:24:25.054Z,11.69
2023-01-06T09:27:01.913Z,12.04
2023-01-06T09:29:40.892Z,11.67
2023-01-06T09:32:15.048Z,11.75
2023-01-06T09:34:46.884Z,12.15
2023-01-06T09:37:15.900Z,11.74
2023-01-06T09:39:47.865Z,11.78
2023-01-06T09:42:28.953Z,11.70
2023-01-06T09:45:06.309Z,11.86
2023-01-06T09:47:42.118Z,11.96
2023-01-06T09:50:33.493Z,11.94
2023-01-06T09:53:27.139Z,11.70
2023-01-06T09:56:01.131Z,12.07
2023-01-06T09:58:57.254Z,12.09
2023-01-06T10:01:41.072Z,11.91
2023-01-06T10:04:17.982Z,11.88
2023-01-06T10:06:59.876Z,11.82
2023-01-06T10:09:35.902Z,11.84
2023-01-06T10:12:46.504Z,12.21
2023-01-06T10:15:23.888Z,12.13
2023-01-06T10:18:26.032Z,12.17
2023-01-06T10:20:58.414Z,11.92
2023-01-06T10:23:39.005Z,12.11
2023-01-06T10:26:40.354Z,12.08
2023-01-06T10:29:21.276Z,12.30
2023-01-06T10:31:51.901Z,12.72
2023-01-06T10:34:27.414Z,12.74
2023-01-06T10:37:22.054Z,12.44
2023-01-06T10:42:59.099Z,12.39
2023-01-06T10:45:49.057Z,12.27
2023-01-06T10:48:29.032Z,12.04
2023-01-06T10:53:38.963Z,12.09
2023-01-06T10:56:10.987Z,12.45
2023-01-06T10:59:00.111Z,12.54
2023-01-06T11:01:30.317Z,12.46
2023-01-06T11:04:12.421Z,12.44
2023-01-06T11:06:59.106Z,12.58
2023-01-06T11:09:33.050Z,12.68
2023-01-06T11:12:02.015Z,12.69
2023-01-06T11:14:32.183Z,12.71
2023-01-06T11:17:04.881Z,12.63
2023-01-06T11:19:43.928Z,13.14
2023-01-06T11:22:41.085Z,13.37
2023-01-06T11:25:23.719Z,13.58
2023-01-06T11:28:10.309Z,13.35
2023-01-06T11:33:39.299Z,13.26
2023-01-06T11:36:15.085Z,13.49
2023-01-06T11:39:00.112Z,13.55
2023-01-06T11:41:42.935Z,13.19
2023-01-06T11:44:33.946Z,13.25
2023-01-06T11:47:08.305Z,13.48
2023-01-06T11:49:55.446Z,13.49
2023-01-06T11:52:32.827Z,13.32
2023-01-06T11:55:27.609Z,13.47
2023-01-06T11:58:06.036Z,13.39
2023-01-06T12:00:44.818Z,13.81
2023-01-06T12:03:24.170Z,13.70
2023-01-06T12:06:05.979Z,13.74
2023-01-06T12:09:07.132Z,13.45
2023-01-06T12:11:48.661Z,13.60
2023-01-06T12:14:29.696Z,13.58
2023-01-06T12:17:20.265Z,13.65
2023-01-06T12:19:57.872Z,14.07
2023-01-06T12:22:38.033Z,13.58
2023-01-06T12:25:20.269Z,13.50
2023-01-06T12:28:08.864Z,13.40
2023-01-06T12:31:18.843Z,13.64
2023-01-06T12:34:04.879Z,13.81
2023-01-06T12:37:12.855Z,14.15
2023-01-06T12:40:02.020Z,13.99
2023-01-06T12:42:49.959Z,13.79
2023-01-06T12:45:37.772Z,13.68
2023-01-06T12:48:18.967Z,14.19
2023-01-06T12:50:52.849Z,14.27
2023-01-06T12:53:28.087Z,14.15
2023-01-06T12:56:32.124Z,14.45
2023-01-06T12:59:33.035Z,14.62
2023-01-06T13:02:16.158Z,14.41
2023-01-06T13:05:02.090Z,14.40
2023-01-06T13:07:48.979Z,13.95
2023-01-06T13:10:32.170Z,13.86
2023-01-06T13:13:00.776Z,14.27
2023-01-06T13:15:31.070Z,14.15
2023-01-06T13:18:26.803Z,13.81
2023-01-06T13:21:11.046Z,13.75
2023-01-06T13:24:04.130Z,13.81
2023-01-06T13:26:50.893Z,13.95
2023-01-06T13:29:36.089Z,13.96
2023-01-06T13:32:31.904Z,14.08
2023-01-06T13:35:22.477Z,14.11
2023-01-06T13:38:06.896Z,14.19
2023-01-06T13:40:45.853Z,14.27
2023-01-06T13:43:27.896Z,14.31
2023-01-06T13:46:01.206Z,14.26
2023-01-06T13:48:34.942Z,14.35
2023-01-06T13:51:08.054Z,14.07
2023-01-06T13:53:47.047Z,13.94
2023-01-06T13:56:17.880Z,14.09
2023-01-06T13:58:47.951Z,13.78
2023-01-06T14:01:21.642Z,13.83
2023-01-06T14:03:51.397Z,13.89
2023-01-06T14:06:23.463Z,13.71
2023-01-06T14:08:59.020Z,13.84
2023-01-06T14:11:28.847Z,13.96
2023-01-06T14:14:02.024Z,13.90
2023-01-06T14:16:46.079Z,13.84
2023-01-06T14:19:18.937Z,13.88
2023-01-06T14:21:49.703Z,13.81
2023-01-06T14:24:31.713Z,13.68
2023-01-06T14:27:04.564Z,13.64
2023-01-06T14:29:46.575Z,13.61
2023-01-06T14:32:15.219Z,13.46
2023-01-06T14:34:56.205Z,13.18
2023-01-06T14:37:28.817Z,13.26
2023-01-06T14:40:07.837Z,13.12
2023-01-06T14:42:45.107Z,13.04
2023-01-06T14:45:30.044Z,13.08
2023-01-06T14:50:57.833Z,13.07
2023-01-06T14:53:36.566Z,13.01
2023-01-06T14:56:14.364Z,12.84
2023-01-06T14:58:52.864Z,12.79
2023-01-06T15:01:30.092Z,12.71
2023-01-06T15:04:04.906Z,12.47
2023-01-06T15:06:33.199Z,12.38
2023-01-06T15:09:20.413Z,12.38
2023-01-06T15:14:29.628Z,12.07
2023-01-06T15:17:02.852Z,12.12
2023-01-06T15:19:31.808Z,12.08
2023-01-06T15:22:08.879Z,12.08
2023-01-06T15:24:51.655Z,12.07
2023-01-06T15:27:25.994Z,12.03
2023-01-06T15:29:56.533Z,11.85
2023-01-06T15:32:27.993Z,11.69
2023-01-06T15:37:34.987Z,11.45
2023-01-06T15:40:18.968Z,11.45
2023-01-06T15:42:50.139Z,11.47
2023-01-06T15:45:38.971Z,11.34
2023-01-06T15:48:17.907Z,11.19
2023-01-06T15:50:52.290Z,11.10
2023-01-06T15:53:32.796Z,11.07
2023-01-06T15:56:05.328Z,10.86
2023-01-06T15:58:37.875Z,10.63
2023-01-06T16:01:17.941Z,10.69
2023-01-06T16:03:57.423Z,10.70
2023-01-06T16:06:32.870Z,10.61
2023-01-06T16:09:38.878Z,10.62
2023-01-06T16:12:23.128Z,10.42
2023-01-06T16:14:53.139Z,10.47
2023-01-06T16:17:39.891Z,10.35
2023-01-06T16:20:25.802Z,10.29
2023-01-06T16:22:58.795Z,10.35
2023-01-06T16:25:32.991Z,10.29
2023-01-06T16:28:05.050Z,10.21
2023-01-06T16:30:36.604Z,10.16
2023-01-06T16:33:05.801Z,10.06
2023-01-06T16:35:39.839Z,10.08
2023-01-06T16:38:12.658Z,10.02
2023-01-06T16:40:42.862Z,9.87
2023-01-06T16:43:22.111Z,9.89
2023-01-06T16:46:02.890Z,9.82
2023-01-06T16:48:30.928Z,9.69
2023-01-06T16:51:19.855Z,9.59
2023-01-06T16:53:56.847Z,9.64
2023-01-06T16:56:43.914Z,9.62
2023-01-06T16:59:22.480Z,9.63
2023-01-06T17:01:57.215Z,9.70
2023-01-06T17:04:26.776Z,9.52
2023-01-06T17:07:00.439Z,9.55
2023-01-06T17:09:30.039Z,9.55
2023-01-06T17:11:59.410Z,9.52
2023-01-06T17:14:32.959Z,9.44
2023-01-06T17:17:18.235Z,9.43
2023-01-06T17:19:55.863Z,9.46
2023-01-06T17:22:32.742Z,9.58
2023-01-06T17:25:02.997Z,9.87
2023-01-06T17:27:38.430Z,9.71
2023-01-06T17:30:20.183Z,9.45
2023-01-06T17:33:06.814Z,9.47
2023-01-06T17:35:52.416Z,9.53
2023-01-06T17:38:24.743Z,9.57
2023-01-06T17:40:58.851Z,9.60
2023-01-06T17:43:31.582Z,9.42
2023-01-06T17:46:05.091Z,9.38
2023-01-06T17:48:47.614Z,9.46
2023-01-06T17:51:17.071Z,9.56
2023-01-06T17:54:11.796Z,9.57
2023-01-06T17:56:40.171Z,9.59
2023-01-06T17:59:15.048Z,9.57
2023-01-06T18:01:48.934Z,9.59
2023-01-06T18:04:21.903Z,9.51
2023-01-06T18:06:55.878Z,9.55
2023-01-06T18:09:32.814Z,9.61
2023-01-06T18:12:13.425Z,9.58
2023-01-06T18:14:45.861Z,9.58
2023-01-06T18:17:29.251Z,9.45
2023-01-06T18:20:04.354Z,9.53
2023-01-06T18:22:35.737Z,9.34
2023-01-06T18:25:09.788Z,9.54
2023-01-06T18:27:40.871Z,9.42
2023-01-06T18:30:18.405Z,9.65
2023-01-06T18:38:06.805Z,9.49
2023-01-06T18:40:50.052Z,9.36
2023-01-06T18:43:28.230Z,9.85
2023-01-06T18:46:04.818Z,9.88
2023-01-06T18:48:41.104Z,9.49
2023-01-06T18:51:25.809Z,9.41
2023-01-06T18:53:57.404Z,9.55
2023-01-06T18:56:32.037Z,9.37
2023-01-06T18:59:04.048Z,9.40
2023-01-06T19:01:44.095Z,9.42
2023-01-06T19:04:33.870Z,9.43
2023-01-06T19:07:13.877Z,9.62
2023-01-06T19:09:53.923Z,9.47
2023-01-06T19:12:39.821Z,9.48
2023-01-06T19:15:23.844Z,9.53
2023-01-06T19:17:56.039Z,9.50
2023-01-06T19:20:28.958Z,9.51
2023-01-06T19:23:25.042Z,9.46
2023-01-06T19:26:21.789Z,9.54
2023-01-06T19:29:03.286Z,9.63
2023-01-06T19:34:14.683Z,9.67
2023-01-06T19:36:49.056Z,9.53
2023-01-06T19:39:38.807Z,9.85
2023-01-06T19:44:55.618Z,9.98
2023-01-06T19:47:30.280Z,9.72
2023-01-06T19:50:12.965Z,9.59
2023-01-06T19:52:42.744Z,9.65
2023-01-06T19:55:21.814Z,9.56
2023-01-06T19:58:00.221Z,9.62
2023-01-06T20:00:52.881Z,9.64
2023-01-06T20:03:34.346Z,9.68
2023-01-06T20:06:12.644Z,9.67
2023-01-06T20:08:47.148Z,10.07
2023-01-06T20:11:17.092Z,10.10
2023-01-06T20:13:51.216Z,9.66
2023-01-06T20:16:27.093Z,9.49
2023-01-06T20:19:03.869Z,9.50
2023-01-06T20:21:33.237Z,9.56
2023-01-06T20:24:04.832Z,9.56
2023-01-06T20:26:42.915Z,9.77
2023-01-06T20:29:12.160Z,9.57
2023-01-06T20:31:40.868Z,9.58
2023-01-06T20:34:09.975Z,9.57
2023-01-06T20:36:40.841Z,9.68
2023-01-06T20:39:20.984Z,9.69
2023-01-06T20:41:57.761Z,9.77
2023-01-06T20:44:26.067Z,9.69
2023-01-06T20:46:56.906Z,9.61
2023-01-06T20:49:32.346Z,9.70
2023-01-06T20:52:02.805Z,9.77
2023-01-06T20:54:41.928Z,9.69
2023-01-06T20:57:10.922Z,9.71
2023-01-06T20:59:42.920Z,9.65
2023-01-06T21:04:52.013Z,9.73
2023-01-06T21:07:25.916Z,9.70
2023-01-06T21:10:03.756Z,9.66
2023-01-06T21:12:33.499Z,9.63
2023-01-06T21:15:03.831Z,9.65
2023-01-06T21:17:31.812Z,9.71
2023-01-06T21:20:06.835Z,9.86
2023-01-06T21:25:13.971Z,9.71
2023-01-06T21:27:51.000Z,9.98
2023-01-06T21:30:18.945Z,9.80
2023-01-06T21:33:00.857Z,9.45
2023-01-06T21:35:30.378Z,9.61
2023-01-06T21:38:01.318Z,9.54
2023-01-06T21:40:33.760Z,9.49
2023-01-06T21:43:11.659Z,9.51
2023-01-06T21:45:44.166Z,9.92
2023-01-06T21:48:23.759Z,9.70
2023-01-06T21:50:53.606Z,9.77
2023-01-06T21:53:23.275Z,9.71
2023-01-06T21:56:00.852Z,9.51
2023-01-06T21:58:29.435Z,9.58
2023-01-06T22:00:58.335Z,9.45
2023-01-06T22:03:30.811Z,9.48
2023-01-06T22:06:02.033Z,9.58
2023-01-06T22:08:34.022Z,9.36
2023-01-06T22:11:09.639Z,9.34
2023-01-06T22:13:39.707Z,9.37
2023-01-06T22:16:09.175Z,9.45
2023-01-06T22:18:37.949Z,9.47
2023-01-06T22:21:07.298Z,9.66
2023-01-06T22:23:39.838Z,9.63
2023-01-06T22:26:10.757Z,9.64
2023-01-06T22:28:39.014Z,9.47
2023-01-06T22:31:07.160Z,9.41
2023-01-06T22:33:36.488Z,9.29
2023-01-06T22:36:05.807Z,9.23
2023-01-06T22:38:34.530Z,9.34
2023-01-06T22:41:03.082Z,9.79
2023-01-06T22:43:35.930Z,9.83
2023-01-06T22:46:04.096Z,9.60
2023-01-06T22:48:31.860Z,9.32
2023-01-06T22:51:04.792Z,9.30
2023-01-06T22:53:37.185Z,9.26
2023-01-06T22:56:11.061Z,9.31
2023-01-06T22:58:43.034Z,9.30
2023-01-06T23:01:12.306Z,9.30
2023-01-06T23:03:40.326Z,9.22
2023-01-06T23:06:13.468Z,9.19
2023-01-06T23:08:59.014Z,9.19
2023-01-06T23:11:33.917Z,9.14
2023-01-06T23:14:05.428Z,9.14
2023-01-06T23:16:38.295Z,9.09
2023-01-06T23:19:15.575Z,9.05
2023-01-06T23:21:47.005Z,9.08
2023-01-06T23:24:17.144Z,8.98
2023-01-06T23:26:46.498Z,8.86
2023-01-06T23:29:14.384Z,8.55
2023-01-06T23:31:44.633Z,8.64
2023-01-06T23:34:16.142Z,8.90
2023-01-06T23:36:44.708Z,8.79
2023-01-06T23:39:15.539Z,8.80
2023-01-06T23:41:45.685Z,8.79
2023-01-06T23:44:15.170Z,8.71
2023-01-06T23:46:44.147Z,8.66
2023-01-06T23:49:18.740Z,8.60
2023-01-06T23:51:46.801Z,8.53
2023-01-06T23:54:15.310Z,8.50
2023-01-06T23:56:44.075Z,8.50
2023-01-06T23:59:12.634Z,8.20
